Time,TemperatureF,DewpointF,PressureIn,WindDirection,WindDirectionDegrees,WindSpeedMPH,WindSpeedGustMPH,Humidity,HourlyPrecipIn,Conditions,Clouds,dailyrainin,SoftwareType,DateUTC
2013-04-13 00:00:00,40.8,32.8,29.96,NW,309,0.0,0.0,73,0.00,CLR,,0.00,WeatherDisplay:10.37,2013-04-13 05:00:00,
2013-04-13 00:05:00,40.8,32.8,29.96,NW,309,0.0,0.0,73,0.00,CLR,,0.00,WeatherDisplay:10.37,2013-04-13 05:05:00,
2013-04-13 00:10:00,40.9,32.9,29.96,NW,309,1.2,1.2,73,0.00,CLR,,0.00,WeatherDisplay:10.37,2013-04-13 05:10:00,
2013-04-13 00:15:00,41.0,33.0,29.96,NW,309,0.0,0.0,73,0.00,CLR,,0.00,WeatherDisplay:10.37,2013-04-13 05:15:00,
2013-04-13 00:20:00,41.0,33.0,29.96,NW,309,0.0,0.0,73,0.00,CLR,,0.00,WeatherDisplay:10.37,2013-04-13 05:20:00,
2013-04-13 00:25:00,40.9,33.2,29.96,NW,309,0.0,0.0,74,0.00,CLR,,0.00,WeatherDisplay:10.37,2013-04-13 05:25:00,
2013-04-13 00:30:00,40.6,33.0,29.96,NW,309,1.2,0.0,74,0.00,CLR,,0.00,WeatherDisplay:10.37,2013-04-13 05:30:00,
2013-04-13 00:35:00,40.2,33.2,29.96,NW,309,0.0,0.0,76,0.00,CLR,,0.00,WeatherDisplay:10.37,2013-04-13 05:35:00,
2013-04-13 00:40:00,39.8,32.8,29.96,NW,309,0.0,0.0,76,0.00,CLR,,0.00,WeatherDisplay:10.37,2013-04-13 05:40:00,
2013-04-13 00:45:00,39.6,33.0,29.96,NW,309,0.0,0.0,77,0.00,CLR,,0.00,WeatherDisplay:10.37,2013-04-13 05:45:00,
2013-04-13 00:50:00,39.3,33.0,29.96,NW,309,0.0,0.0,78,0.00,CLR,,0.00,WeatherDisplay:10.37,2013-04-13 05:50:00,
2013-04-13 00:55:00,39.1,32.8,29.96,NW,309,0.0,0.0,78,0.00,CLR,,0.00,WeatherDisplay:10.37,2013-04-13 05:55:00,
2013-04-13 01:00:00,39.0,33.0,29.96,NW,309,0.0,0.0,79,0.00,CLR,,0.00,WeatherDisplay:10.37,2013-04-13 06:00:00,
2013-04-13 01:05:00,39.0,33.0,29.96,NW,309,0.0,0.0,79,0.00,CLR,,0.00,WeatherDisplay:10.37,2013-04-13 06:05:00,
2013-04-13 01:10:00,39.1,33.1,29.96,NW,309,0.0,0.0,79,0.00,CLR,,0.00,WeatherDisplay:10.37,2013-04-13 06:10:00,
2013-04-13 01:15:00,39.0,33.0,29.97,NW,309,0.0,0.0,79,0.00,CLR,,0.00,WeatherDisplay:10.37,2013-04-13 06:15:00,
2013-04-13 01:21:00,38.9,32.9,29.97,NW,309,1.2,0.0,79,0.00,CLR,,0.00,WeatherDisplay:10.37,2013-04-13 06:21:00,
2013-04-13 01:26:00,39.0,32.7,29.96,NW,309,0.0,0.0,78,0.00,CLR,,0.00,WeatherDisplay:10.37,2013-04-13 06:26:00,
2013-04-13 01:31:00,39.0,33.0,29.96,NW,309,0.0,0.0,79,0.00,CLR,,0.00,WeatherDisplay:10.37,2013-04-13 06:31:00,
2013-04-13 01:36:00,38.7,32.7,29.96,NW,309,0.0,0.0,79,0.00,CLR,,0.00,WeatherDisplay:10.37,2013-04-13 06:36:00,
2013-04-13 01:42:00,38.5,32.9,29.96,NW,309,1.2,0.0,80,0.00,CLR,,0.00,WeatherDisplay:10.37,2013-04-13 06:42:00,
2013-04-13 01:47:00,38.5,32.9,29.96,NW,309,0.0,0.0,80,0.00,CLR,,0.00,WeatherDisplay:10.37,2013-04-13 06:47:00,
2013-04-13 01:53:00,38.4,32.5,29.96,NW,309,0.0,0.0,79,0.00,CLR,,0.00,WeatherDisplay:10.37,2013-04-13 06:53:00,
2013-04-13 01:58:00,38.2,32.3,29.96,NW,309,0.0,0.0,79,0.00,CLR,,0.00,WeatherDisplay:10.37,2013-04-13 06:58:00,
2013-04-13 02:03:00,38.0,32.4,29.96,NW,309,0.0,0.0,80,0.00,CLR,,0.00,WeatherDisplay:10.37,2013-04-13 07:03:00,
2013-04-13 02:08:00,37.9,32.3,29.96,NW,309,0.0,0.0,80,0.00,CLR,,0.00,WeatherDisplay:10.37,2013-04-13 07:08:00,
2013-04-13 02:13:00,37.7,32.1,29.96,NW,309,0.0,0.0,80,0.00,CLR,,0.00,WeatherDisplay:10.37,2013-04-13 07:13:00,
2013-04-13 02:18:00,37.5,31.9,29.96,NW,309,0.0,0.0,80,0.00,CLR,,0.00,WeatherDisplay:10.37,2013-04-13 07:18:00,
2013-04-13 02:23:00,37.7,32.1,29.97,NW,309,0.0,0.0,80,0.00,CLR,,0.00,WeatherDisplay:10.37,2013-04-13 07:23:00,
2013-04-13 02:28:00,37.9,32.3,29.96,NW,309,1.0,1.0,80,0.00,CLR,,0.00,WeatherDisplay:10.37,2013-04-13 07:28:00,
2013-04-13 02:33:00,38.0,32.1,29.96,NW,309,0.0,0.0,79,0.00,CLR,,0.00,WeatherDisplay:10.37,2013-04-13 07:33:00,
2013-04-13 02:38:00,38.0,32.1,29.96,NW,309,0.0,0.0,79,0.00,CLR,,0.00,WeatherDisplay:10.37,2013-04-13 07:38:00,
2013-04-13 02:43:00,37.9,32.0,29.96,NW,309,0.0,0.0,79,0.00,CLR,,0.00,WeatherDisplay:10.37,2013-04-13 07:43:00,
2013-04-13 02:49:00,37.7,31.8,29.96,NW,309,0.0,0.0,79,0.00,CLR,,0.00,WeatherDisplay:10.37,2013-04-13 07:49:00,
2013-04-13 02:54:00,37.4,31.5,29.95,NW,309,0.0,0.0,79,0.00,CLR,,0.00,WeatherDisplay:10.37,2013-04-13 07:54:00,
2013-04-13 02:59:00,37.0,31.7,29.95,NW,309,0.0,0.0,81,0.00,CLR,,0.00,WeatherDisplay:10.37,2013-04-13 07:59:00,
2013-04-13 03:05:00,36.8,31.5,29.95,NW,309,0.0,0.0,81,0.00,CLR,,0.00,WeatherDisplay:10.37,2013-04-13 08:05:00,
2013-04-13 03:10:00,36.6,31.6,29.95,NW,309,1.2,0.0,82,0.00,CLR,,0.00,WeatherDisplay:10.37,2013-04-13 08:10:00,
2013-04-13 03:15:00,36.6,31.6,29.95,NW,309,0.0,0.0,82,0.00,CLR,,0.00,WeatherDisplay:10.37,2013-04-13 08:15:00,
2013-04-13 03:20:00,36.6,31.6,29.95,NW,309,0.0,0.0,82,0.00,CLR,,0.00,WeatherDisplay:10.37,2013-04-13 08:20:00,
2013-04-13 03:25:00,36.4,31.4,29.95,NW,309,0.0,0.0,82,0.00,CLR,,0.00,WeatherDisplay:10.37,2013-04-13 08:25:00,
2013-04-13 03:30:00,36.1,31.4,29.95,NW,309,0.0,0.0,83,0.00,CLR,,0.00,WeatherDisplay:10.37,2013-04-13 08:30:00,
2013-04-13 03:35:00,35.9,31.2,29.95,NW,309,0.0,0.0,83,0.00,CLR,,0.00,WeatherDisplay:10.37,2013-04-13 08:35:00,
2013-04-13 03:41:00,35.8,31.4,29.95,NW,309,0.0,0.0,84,0.00,CLR,,0.00,WeatherDisplay:10.37,2013-04-13 08:41:00,
2013-04-13 03:46:00,35.9,31.5,29.95,NW,309,0.0,0.0,84,0.00,CLR,,0.00,WeatherDisplay:10.37,2013-04-13 08:46:00,
2013-04-13 03:51:00,36.0,31.6,29.96,NW,309,0.0,0.0,84,0.00,CLR,,0.00,WeatherDisplay:10.37,2013-04-13 08:51:00,
2013-04-13 03:56:00,36.0,31.3,29.96,NW,309,0.0,0.0,83,0.00,CLR,,0.00,WeatherDisplay:10.37,2013-04-13 08:56:00,
2013-04-13 04:01:00,35.7,31.3,29.96,NW,309,0.0,0.0,84,0.00,CLR,,0.00,WeatherDisplay:10.37,2013-04-13 09:01:00,
2013-04-13 04:07:00,35.5,31.1,29.96,NW,309,0.0,0.0,84,0.00,CLR,,0.00,WeatherDisplay:10.37,2013-04-13 09:07:00,
2013-04-13 04:12:00,35.2,30.9,29.96,NW,309,0.0,0.0,84,0.00,CLR,,0.00,WeatherDisplay:10.37,2013-04-13 09:12:00,
2013-04-13 04:17:00,34.9,30.6,29.97,NW,309,0.0,0.0,84,0.00,CLR,,0.00,WeatherDisplay:10.37,2013-04-13 09:17:00,
2013-04-13 04:22:00,35.0,30.9,29.97,NW,309,0.0,0.0,85,0.00,CLR,,0.00,WeatherDisplay:10.37,2013-04-13 09:22:00,
2013-04-13 04:27:00,35.0,30.9,29.96,NW,309,0.0,0.0,85,0.00,CLR,,0.00,WeatherDisplay:10.37,2013-04-13 09:27:00,
2013-04-13 04:33:00,34.8,31.0,29.96,NW,309,0.0,0.0,86,0.00,CLR,,0.00,WeatherDisplay:10.37,2013-04-13 09:33:00,
2013-04-13 04:38:00,34.6,30.8,29.96,NW,309,0.0,0.0,86,0.00,CLR,,0.00,WeatherDisplay:10.37,2013-04-13 09:38:00,
2013-04-13 04:43:00,34.4,30.6,29.96,NW,309,2.3,2.3,86,0.00,CLR,,0.00,WeatherDisplay:10.37,2013-04-13 09:43:00,
2013-04-13 04:49:00,34.7,31.2,29.97,NW,309,0.0,0.0,87,0.00,CLR,,0.00,WeatherDisplay:10.37,2013-04-13 09:49:00,
2013-04-13 04:54:00,34.7,31.2,29.96,NW,309,0.0,0.0,87,0.00,CLR,,0.00,WeatherDisplay:10.37,2013-04-13 09:54:00,
2013-04-13 05:00:00,34.9,31.4,29.96,NW,309,0.0,0.0,87,0.00,CLR,,0.00,WeatherDisplay:10.37,2013-04-13 10:00:00,
2013-04-13 05:05:00,35.0,31.5,29.96,NW,309,0.0,0.0,87,0.00,CLR,,0.00,WeatherDisplay:10.37,2013-04-13 10:05:00,
2013-04-13 05:10:00,35.2,31.7,29.96,NW,309,0.0,0.0,87,0.00,CLR,,0.00,WeatherDisplay:10.37,2013-04-13 10:10:00,
2013-04-13 05:15:00,35.4,31.9,29.96,NW,309,0.0,0.0,87,0.00,CLR,,0.00,WeatherDisplay:10.37,2013-04-13 10:15:00,
2013-04-13 05:20:00,35.4,31.9,29.96,NW,309,0.0,0.0,87,0.00,CLR,,0.00,WeatherDisplay:10.37,2013-04-13 10:20:00,
2013-04-13 05:26:00,35.5,32.0,29.96,NW,309,0.0,0.0,87,0.00,CLR,,0.00,WeatherDisplay:10.37,2013-04-13 10:26:00,
2013-04-13 05:31:00,35.5,32.0,29.96,NW,309,0.0,0.0,87,0.00,CLR,,0.00,WeatherDisplay:10.37,2013-04-13 10:31:00,
2013-04-13 05:36:00,35.5,32.0,29.96,NW,309,0.0,0.0,87,0.00,CLR,,0.00,WeatherDisplay:10.37,2013-04-13 10:36:00,
2013-04-13 05:42:00,35.7,32.2,29.96,NW,309,1.2,0.0,87,0.00,CLR,,0.00,WeatherDisplay:10.37,2013-04-13 10:42:00,
2013-04-13 05:47:00,35.7,32.2,29.97,NW,309,0.0,0.0,87,0.00,CLR,,0.00,WeatherDisplay:10.37,2013-04-13 10:47:00,
2013-04-13 05:52:00,35.9,32.1,29.96,NW,309,0.0,0.0,86,0.00,CLR,,0.00,WeatherDisplay:10.37,2013-04-13 10:52:00,
2013-04-13 05:57:00,36.1,32.3,29.96,NW,309,0.0,0.0,86,0.00,CLR,,0.00,WeatherDisplay:10.37,2013-04-13 10:57:00,
2013-04-13 06:03:00,36.4,32.6,29.95,NW,309,1.2,0.0,86,0.00,CLR,,0.00,WeatherDisplay:10.37,2013-04-13 11:03:00,
2013-04-13 06:08:00,36.4,32.3,29.95,NW,309,1.2,1.2,85,0.00,CLR,,0.00,WeatherDisplay:10.37,2013-04-13 11:08:00,
2013-04-13 06:13:00,36.2,32.1,29.95,NW,309,2.3,2.3,85,0.00,CLR,,0.00,WeatherDisplay:10.37,2013-04-13 11:13:00,
2013-04-13 06:18:00,36.5,32.4,29.95,NW,309,0.0,0.0,85,0.00,CLR,,0.00,WeatherDisplay:10.37,2013-04-13 11:18:00,
2013-04-13 06:23:00,36.5,33.6,29.96,NW,309,0.0,0.0,89,0.00,CLR,,0.00,WeatherDisplay:10.37,2013-04-13 11:23:00,
2013-04-13 06:28:00,36.2,31.8,29.96,NW,309,0.0,0.0,84,0.00,CLR,,0.00,WeatherDisplay:10.37,2013-04-13 11:28:00,
2013-04-13 06:33:00,35.9,31.5,29.96,NW,309,0.0,0.0,84,0.00,CLR,,0.00,WeatherDisplay:10.37,2013-04-13 11:33:00,
2013-04-13 06:39:00,35.6,31.5,29.96,NW,309,0.0,0.0,85,0.00,CLR,,0.00,WeatherDisplay:10.37,2013-04-13 11:39:00,
2013-04-13 06:44:00,35.5,31.4,29.96,NW,309,1.2,1.2,85,0.00,CLR,,0.00,WeatherDisplay:10.37,2013-04-13 11:44:00,
2013-04-13 06:49:00,35.2,31.1,29.97,NW,309,0.0,0.0,85,0.00,CLR,,0.00,WeatherDisplay:10.37,2013-04-13 11:49:00,
2013-04-13 06:54:00,34.6,30.8,29.97,NW,309,0.0,0.0,86,0.00,CLR,,0.00,WeatherDisplay:10.37,2013-04-13 11:54:00,
2013-04-13 07:00:00,34.4,30.6,29.97,NW,309,0.0,0.0,86,0.00,CLR,,0.00,WeatherDisplay:10.37,2013-04-13 12:00:00,
2013-04-13 07:06:00,34.4,30.9,29.98,NW,309,0.0,0.0,87,0.00,CLR,,0.00,WeatherDisplay:10.37,2013-04-13 12:06:00,
2013-04-13 07:12:00,34.4,31.2,29.98,NW,309,0.0,0.0,88,0.00,CLR,,0.00,WeatherDisplay:10.37,2013-04-13 12:12:00,
2013-04-13 07:17:00,34.6,31.4,29.98,NW,309,0.0,0.0,88,0.00,CLR,,0.00,WeatherDisplay:10.37,2013-04-13 12:17:00,
2013-04-13 07:22:00,34.8,31.6,29.98,NW,309,0.0,0.0,88,0.00,CLR,,0.00,WeatherDisplay:10.37,2013-04-13 12:22:00,
2013-04-13 07:28:00,35.2,32.0,29.98,NW,309,0.0,0.0,88,0.00,CLR,,0.00,WeatherDisplay:10.37,2013-04-13 12:28:00,
2013-04-13 07:33:00,35.3,32.1,29.98,NW,309,0.0,0.0,88,0.00,CLR,,0.00,WeatherDisplay:10.37,2013-04-13 12:33:00,
2013-04-13 07:38:00,35.5,32.3,29.98,NW,309,0.0,0.0,88,0.00,CLR,,0.00,WeatherDisplay:10.37,2013-04-13 12:38:00,
2013-04-13 07:43:00,35.5,32.3,29.98,NW,309,0.0,0.0,88,0.00,CLR,,0.00,WeatherDisplay:10.37,2013-04-13 12:43:00,
2013-04-13 07:48:00,35.8,32.6,29.98,NW,309,0.0,0.0,88,0.00,CLR,,0.00,WeatherDisplay:10.37,2013-04-13 12:48:00,
2013-04-13 07:54:00,36.2,33.0,29.99,NW,309,0.0,0.0,88,0.00,CLR,,0.00,WeatherDisplay:10.37,2013-04-13 12:54:00,
2013-04-13 07:59:00,36.7,33.5,29.99,NW,309,0.0,0.0,88,0.00,CLR,,0.00,WeatherDisplay:10.37,2013-04-13 12:59:00,
2013-04-13 08:04:00,37.2,34.0,29.98,NW,309,0.0,0.0,88,0.00,CLR,,0.00,WeatherDisplay:10.37,2013-04-13 13:04:00,
2013-04-13 08:10:00,37.7,34.2,29.98,NW,309,2.3,2.3,87,0.00,CLR,,0.00,WeatherDisplay:10.37,2013-04-13 13:10:00,
2013-04-13 08:15:00,38.2,34.4,29.98,NW,309,3.0,3.0,86,0.00,CLR,,0.00,WeatherDisplay:10.37,2013-04-13 13:15:00,
2013-04-13 08:21:00,38.8,34.7,29.98,NW,309,0.0,0.0,85,0.00,CLR,,0.00,WeatherDisplay:10.37,2013-04-13 13:21:00,
2013-04-13 08:26:00,39.3,34.6,29.98,NW,309,0.0,0.0,83,0.00,CLR,,0.00,WeatherDisplay:10.37,2013-04-13 13:26:00,
2013-04-13 08:31:00,40.0,34.9,29.98,NW,309,2.3,2.3,82,0.00,CLR,,0.00,WeatherDisplay:10.37,2013-04-13 13:31:00,
2013-04-13 08:36:00,40.5,34.5,29.98,NW,309,2.3,2.3,79,0.00,CLR,,0.00,WeatherDisplay:10.37,2013-04-13 13:36:00,
2013-04-13 08:42:00,40.9,34.6,29.98,NW,309,0.0,0.0,78,0.00,CLR,,0.00,WeatherDisplay:10.37,2013-04-13 13:42:00,
2013-04-13 08:47:00,41.2,34.5,29.98,NW,309,0.0,0.0,77,0.00,CLR,,0.00,WeatherDisplay:10.37,2013-04-13 13:47:00,
2013-04-13 08:52:00,42.0,35.0,29.98,NW,309,0.0,0.0,76,0.00,CLR,,0.00,WeatherDisplay:10.37,2013-04-13 13:52:00,
2013-04-13 08:57:00,42.4,34.7,29.98,NW,309,3.5,3.5,74,0.00,CLR,,0.00,WeatherDisplay:10.37,2013-04-13 13:57:00,
2013-04-13 09:02:00,42.4,34.0,29.98,NW,309,3.5,3.5,72,0.00,CLR,,0.00,WeatherDisplay:10.37,2013-04-13 14:02:00,
2013-04-13 09:08:00,42.5,34.1,29.97,NW,309,1.2,1.2,72,0.00,CLR,,0.00,WeatherDisplay:10.37,2013-04-13 14:08:00,
2013-04-13 09:13:00,42.8,34.4,29.97,NW,309,0.0,0.0,72,0.00,CLR,,0.00,WeatherDisplay:10.37,2013-04-13 14:13:00,
2013-04-13 09:18:00,43.2,34.8,29.97,NW,309,0.0,0.0,72,0.00,CLR,,0.00,WeatherDisplay:10.37,2013-04-13 14:18:00,
2013-04-13 09:23:00,43.5,34.0,29.97,NW,309,0.0,0.0,69,0.00,CLR,,0.00,WeatherDisplay:10.37,2013-04-13 14:23:00,
2013-04-13 09:28:00,43.9,34.4,29.97,NW,309,4.6,4.6,69,0.00,CLR,,0.00,WeatherDisplay:10.37,2013-04-13 14:28:00,
2013-04-13 09:33:00,44.6,35.1,29.97,NW,309,3.0,3.0,69,0.00,CLR,,0.00,WeatherDisplay:10.37,2013-04-13 14:33:00,
2013-04-13 09:38:00,44.8,34.5,29.97,NW,306,4.0,4.0,67,0.00,CLR,,0.00,WeatherDisplay:10.37,2013-04-13 14:38:00,
2013-04-13 09:44:00,45.0,35.1,29.97,NW,306,0.0,0.0,68,0.00,CLR,,0.00,WeatherDisplay:10.37,2013-04-13 14:44:00,
2013-04-13 09:49:00,45.2,34.5,29.97,NW,306,2.3,2.3,66,0.00,CLR,,0.00,WeatherDisplay:10.37,2013-04-13 14:49:00,
2013-04-13 09:54:00,45.3,34.2,29.97,NW,306,3.0,3.0,65,0.00,CLR,,0.00,WeatherDisplay:10.37,2013-04-13 14:54:00,
2013-04-13 09:59:00,45.3,34.2,29.96,NW,306,3.5,3.5,65,0.00,CLR,,0.00,WeatherDisplay:10.37,2013-04-13 14:59:00,
2013-04-13 10:04:00,45.1,33.6,29.97,NW,306,0.0,0.0,64,0.00,CLR,,0.00,WeatherDisplay:10.37,2013-04-13 15:04:00,
2013-04-13 10:11:00,45.2,34.1,29.96,WNW,302,5.8,5.8,65,0.00,CLR,,0.00,WeatherDisplay:10.37,2013-04-13 15:11:00,
2013-04-13 10:16:00,45.4,34.3,29.96,WNW,302,3.5,3.5,65,0.00,CLR,,0.00,WeatherDisplay:10.37,2013-04-13 15:16:00,
2013-04-13 10:21:00,45.8,35.1,29.96,WNW,302,1.2,0.0,66,0.00,CLR,,0.00,WeatherDisplay:10.37,2013-04-13 15:21:00,
2013-04-13 10:26:00,46.8,36.0,29.96,WNW,300,5.0,5.0,66,0.00,CLR,,0.00,WeatherDisplay:10.37,2013-04-13 15:26:00,
2013-04-13 10:32:00,47.3,35.3,29.95,WNW,298,5.8,5.8,63,0.00,CLR,,0.00,WeatherDisplay:10.37,2013-04-13 15:32:00,
2013-04-13 10:37:00,47.9,35.5,29.95,WNW,296,3.5,3.5,62,0.00,CLR,,0.00,WeatherDisplay:10.37,2013-04-13 15:37:00,
2013-04-13 10:42:00,48.3,35.5,29.95,WNW,292,4.6,4.6,61,0.00,CLR,,0.00,WeatherDisplay:10.37,2013-04-13 15:42:00,
2013-04-13 10:47:00,48.8,35.9,29.95,WNW,291,5.0,5.0,61,0.00,CLR,,0.00,WeatherDisplay:10.37,2013-04-13 15:47:00,
2013-04-13 10:54:00,49.4,36.5,29.94,West,277,4.6,4.6,61,0.00,CLR,,0.00,WeatherDisplay:10.37,2013-04-13 15:54:00,
2013-04-13 10:59:00,49.6,36.3,29.94,South,187,1.2,1.2,60,0.00,CLR,,0.00,WeatherDisplay:10.37,2013-04-13 15:59:00,
2013-04-13 11:04:00,49.5,36.2,29.94,South,182,4.6,4.6,60,0.00,CLR,,0.00,WeatherDisplay:10.37,2013-04-13 16:04:00,
2013-04-13 11:09:00,49.8,36.5,29.94,South,181,4.6,4.6,60,0.00,CLR,,0.00,WeatherDisplay:10.37,2013-04-13 16:09:00,
2013-04-13 11:14:00,49.9,35.3,29.94,South,180,10.4,10.4,57,0.00,CLR,,0.00,WeatherDisplay:10.37,2013-04-13 16:14:00,
2013-04-13 11:19:00,50.2,36.0,29.94,South,177,6.9,6.9,58,0.00,CLR,,0.00,WeatherDisplay:10.37,2013-04-13 16:19:00,
2013-04-13 11:25:00,50.8,36.1,29.93,SSE,163,2.0,6.0,57,0.00,CLR,,0.00,WeatherDisplay:10.37,2013-04-13 16:25:00,
2013-04-13 11:30:00,51.5,36.8,29.93,SSE,156,3.5,3.5,57,0.00,CLR,,0.00,WeatherDisplay:10.37,2013-04-13 16:30:00,
2013-04-13 11:35:00,51.4,37.1,29.93,South,179,4.6,4.6,58,0.00,CLR,,0.00,WeatherDisplay:10.37,2013-04-13 16:35:00,
2013-04-13 11:40:00,51.5,37.2,29.93,South,183,6.0,6.0,58,0.00,CLR,,0.00,WeatherDisplay:10.37,2013-04-13 16:40:00,
2013-04-13 11:45:00,51.9,37.1,29.92,South,184,11.5,11.5,57,0.00,CLR,,0.00,WeatherDisplay:10.37,2013-04-13 16:45:00,
2013-04-13 11:50:00,52.8,38.4,29.92,South,183,2.0,2.0,58,0.00,CLR,,0.00,WeatherDisplay:10.37,2013-04-13 16:50:00,
2013-04-13 11:55:00,53.6,39.2,29.92,South,183,5.0,5.0,58,0.00,CLR,,0.00,WeatherDisplay:10.37,2013-04-13 16:55:00,
2013-04-13 12:02:00,53.8,38.5,29.91,SSE,147,6.0,6.0,56,0.00,CLR,,0.00,WeatherDisplay:10.37,2013-04-13 17:02:00,
2013-04-13 12:07:00,54.3,38.0,29.91,SSE,150,5.0,5.0,54,0.00,CLR,,0.00,WeatherDisplay:10.37,2013-04-13 17:07:00,
2013-04-13 12:13:00,54.3,38.0,29.90,SSE,149,1.2,1.2,54,0.00,CLR,,0.00,WeatherDisplay:10.37,2013-04-13 17:13:00,
2013-04-13 12:19:00,54.3,37.5,29.90,South,176,11.5,11.5,53,0.00,CLR,,0.00,WeatherDisplay:10.37,2013-04-13 17:19:00,
2013-04-13 12:24:00,54.2,37.4,29.90,South,178,4.6,4.6,53,0.00,CLR,,0.00,WeatherDisplay:10.37,2013-04-13 17:24:00,
2013-04-13 12:29:00,54.5,38.7,29.89,South,180,9.2,9.2,55,0.00,CLR,,0.00,WeatherDisplay:10.37,2013-04-13 17:29:00,
2013-04-13 12:34:00,54.1,38.7,29.89,SSE,157,3.5,3.5,56,0.00,CLR,,0.00,WeatherDisplay:10.37,2013-04-13 17:34:00,
2013-04-13 12:40:00,54.4,38.6,29.89,SSE,157,9.2,9.2,55,0.00,CLR,,0.00,WeatherDisplay:10.37,2013-04-13 17:40:00,
2013-04-13 12:45:00,54.4,38.1,29.89,SSE,164,5.0,10.0,54,0.00,CLR,,0.00,WeatherDisplay:10.37,2013-04-13 17:45:00,
2013-04-13 12:50:00,54.3,38.0,29.88,SSE,166,3.5,3.5,54,0.00,CLR,,0.00,WeatherDisplay:10.37,2013-04-13 17:50:00,
2013-04-13 12:55:00,54.2,37.9,29.88,SSE,161,6.9,6.9,54,0.00,CLR,,0.00,WeatherDisplay:10.37,2013-04-13 17:55:00,
2013-04-13 13:00:00,54.0,37.7,29.87,SSE,158,6.9,6.9,54,0.00,CLR,,0.00,WeatherDisplay:10.37,2013-04-13 18:00:00,
2013-04-13 13:05:00,54.2,37.9,29.87,SSE,163,10.4,10.4,54,0.00,CLR,,0.00,WeatherDisplay:10.37,2013-04-13 18:05:00,
2013-04-13 13:10:00,54.4,39.0,29.87,SSE,163,7.0,7.0,56,0.00,CLR,,0.00,WeatherDisplay:10.37,2013-04-13 18:10:00,
2013-04-13 13:15:00,54.5,38.7,29.86,SSE,155,11.5,11.5,55,0.00,CLR,,0.00,WeatherDisplay:10.37,2013-04-13 18:15:00,
2013-04-13 13:20:00,55.3,39.9,29.86,SSE,153,9.2,9.2,56,0.00,CLR,,0.00,WeatherDisplay:10.37,2013-04-13 18:20:00,
2013-04-13 13:25:00,56.0,40.1,29.86,South,174,7.0,7.0,55,0.00,CLR,,0.00,WeatherDisplay:10.37,2013-04-13 18:25:00,
2013-04-13 13:27:00,56.2,39.8,29.86,SSE,161,6.9,6.9,54,0.00,CLR,,0.00,WeatherDisplay:10.37,2013-04-13 18:27:00,
2013-04-13 13:32:00,56.4,39.5,29.85,SSE,160,6.9,6.9,53,0.00,CLR,,0.00,WeatherDisplay:10.37,2013-04-13 18:32:00,
2013-04-13 13:37:00,56.8,39.8,29.85,SSE,162,9.2,9.2,53,0.00,CLR,,0.00,WeatherDisplay:10.37,2013-04-13 18:37:00,
2013-04-13 13:42:00,56.2,39.3,29.85,South,181,6.9,6.9,53,0.00,CLR,,0.00,WeatherDisplay:10.37,2013-04-13 18:42:00,
2013-04-13 13:47:00,56.6,39.7,29.85,South,180,3.5,3.5,53,0.00,CLR,,0.00,WeatherDisplay:10.37,2013-04-13 18:47:00,
2013-04-13 13:52:00,57.6,41.5,29.84,SSE,168,8.0,8.0,55,0.00,CLR,,0.00,WeatherDisplay:10.37,2013-04-13 18:52:00,
2013-04-13 13:57:00,57.2,39.7,29.84,SSE,167,8.1,8.1,52,0.00,CLR,,0.00,WeatherDisplay:10.37,2013-04-13 18:57:00,
2013-04-13 14:02:00,57.7,41.2,29.83,SSE,164,9.2,9.2,54,0.00,CLR,,0.00,WeatherDisplay:10.37,2013-04-13 19:02:00,
2013-04-13 14:07:00,57.8,40.8,29.83,SSE,159,6.9,6.9,53,0.00,CLR,,0.00,WeatherDisplay:10.37,2013-04-13 19:07:00,
2013-04-13 14:13:00,57.6,40.1,29.83,SSE,148,11.5,11.5,52,0.00,CLR,,0.00,WeatherDisplay:10.37,2013-04-13 19:13:00,
2013-04-13 14:18:00,57.5,40.0,29.82,SSE,150,12.7,12.7,52,0.00,CLR,,0.00,WeatherDisplay:10.37,2013-04-13 19:18:00,
2013-04-13 14:23:00,57.5,40.5,29.82,ESE,121,9.2,9.2,53,0.00,CLR,,0.00,WeatherDisplay:10.37,2013-04-13 19:23:00,
2013-04-13 14:28:00,57.8,41.3,29.82,SE,141,10.4,10.4,54,0.00,CLR,,0.00,WeatherDisplay:10.37,2013-04-13 19:28:00,
2013-04-13 14:33:00,58.3,41.2,29.82,SSE,167,7.0,7.0,53,0.00,CLR,,0.00,WeatherDisplay:10.37,2013-04-13 19:33:00,
2013-04-13 14:38:00,58.7,41.1,29.81,SE,129,9.2,9.2,52,0.00,CLR,,0.00,WeatherDisplay:10.37,2013-04-13 19:38:00,
2013-04-13 14:43:00,58.7,40.1,29.81,SSE,148,8.1,8.1,50,0.00,CLR,,0.00,WeatherDisplay:10.37,2013-04-13 19:43:00,
2013-04-13 14:48:00,58.5,41.4,29.81,South,179,9.2,9.2,53,0.00,CLR,,0.00,WeatherDisplay:10.37,2013-04-13 19:48:00,
2013-04-13 14:53:00,59.2,41.6,29.80,South,171,3.5,3.5,52,0.00,CLR,,0.00,WeatherDisplay:10.37,2013-04-13 19:53:00,
2013-04-13 14:58:00,59.0,41.4,29.80,SSE,150,10.4,10.4,52,0.00,CLR,,0.00,WeatherDisplay:10.37,2013-04-13 19:58:00,
2013-04-13 15:03:00,59.1,41.5,29.79,SSE,148,11.0,11.0,52,0.00,CLR,,0.00,WeatherDisplay:10.37,2013-04-13 20:03:00,
2013-04-13 15:08:00,58.6,40.5,29.79,South,177,9.2,9.2,51,0.00,CLR,,0.00,WeatherDisplay:10.37,2013-04-13 20:08:00,
2013-04-13 15:13:00,59.0,41.9,29.78,SSE,152,6.0,6.0,53,0.00,CLR,,0.00,WeatherDisplay:10.37,2013-04-13 20:13:00,
2013-04-13 15:18:00,59.5,41.9,29.78,SSW,203,6.9,6.9,52,0.00,CLR,,0.00,WeatherDisplay:10.37,2013-04-13 20:18:00,
2013-04-13 15:23:00,60.0,41.8,29.77,SSE,148,11.5,11.5,51,0.00,CLR,,0.00,WeatherDisplay:10.37,2013-04-13 20:23:00,
2013-04-13 15:28:00,60.4,41.7,29.77,SE,126,11.5,11.5,50,0.00,CLR,,0.00,WeatherDisplay:10.37,2013-04-13 20:28:00,
2013-04-13 15:33:00,60.1,42.4,29.76,SE,126,6.9,6.9,52,0.00,CLR,,0.00,WeatherDisplay:10.37,2013-04-13 20:33:00,
2013-04-13 15:38:00,60.3,42.1,29.76,SE,146,11.5,11.5,51,0.00,CLR,,0.00,WeatherDisplay:10.37,2013-04-13 20:38:00,
2013-04-13 15:43:00,60.4,42.2,29.76,SE,134,12.7,12.7,51,0.00,CLR,,0.00,WeatherDisplay:10.37,2013-04-13 20:43:00,
2013-04-13 15:48:00,60.7,42.5,29.75,SE,128,13.8,13.8,51,0.00,CLR,,0.00,WeatherDisplay:10.37,2013-04-13 20:48:00,
2013-04-13 15:53:00,60.9,42.6,29.75,SSE,166,11.5,11.5,51,0.00,CLR,,0.00,WeatherDisplay:10.37,2013-04-13 20:53:00,
2013-04-13 15:58:00,60.8,42.5,29.74,ESE,123,15.0,15.0,51,0.00,CLR,,0.00,WeatherDisplay:10.37,2013-04-13 20:58:00,
2013-04-13 16:03:00,60.8,43.6,29.74,SSE,150,5.8,5.8,53,0.00,CLR,,0.00,WeatherDisplay:10.37,2013-04-13 21:03:00,
2013-04-13 16:08:00,61.2,43.4,29.74,ESE,104,5.0,5.0,52,0.00,CLR,,0.00,WeatherDisplay:10.37,2013-04-13 21:08:00,
2013-04-13 16:13:00,61.7,43.4,29.73,SSE,147,12.7,12.7,51,0.00,CLR,,0.00,WeatherDisplay:10.37,2013-04-13 21:13:00,
2013-04-13 16:18:00,61.4,43.1,29.73,SE,145,21.0,21.0,51,0.00,CLR,,0.00,WeatherDisplay:10.37,2013-04-13 21:18:00,
2013-04-13 16:23:00,61.2,42.9,29.73,SE,126,13.8,13.8,51,0.00,CLR,,0.00,WeatherDisplay:10.37,2013-04-13 21:23:00,
2013-04-13 16:28:00,61.4,43.6,29.72,South,181,11.5,11.5,52,0.00,CLR,,0.00,WeatherDisplay:10.37,2013-04-13 21:28:00,
2013-04-13 16:33:00,61.5,43.2,29.72,SE,132,17.3,17.3,51,0.00,CLR,,0.00,WeatherDisplay:10.37,2013-04-13 21:33:00,
2013-04-13 16:38:00,61.6,43.3,29.72,SE,142,18.4,18.4,51,0.00,CLR,,0.00,WeatherDisplay:10.37,2013-04-13 21:38:00,
2013-04-13 16:43:00,61.8,43.5,29.72,SSE,159,11.5,11.5,51,0.00,CLR,,0.00,WeatherDisplay:10.37,2013-04-13 21:43:00,
2013-04-13 16:48:00,61.8,43.5,29.72,SE,138,13.8,13.8,51,0.00,CLR,,0.00,WeatherDisplay:10.37,2013-04-13 21:48:00,
2013-04-13 16:53:00,61.9,44.1,29.72,SSE,156,11.5,11.5,52,0.00,CLR,,0.00,WeatherDisplay:10.37,2013-04-13 21:53:00,
2013-04-13 16:58:00,62.3,43.9,29.71,ESE,119,11.5,11.5,51,0.00,CLR,,0.00,WeatherDisplay:10.37,2013-04-13 21:58:00,
2013-04-13 17:03:00,62.2,44.3,29.71,SE,143,4.6,4.6,52,0.00,CLR,,0.00,WeatherDisplay:10.37,2013-04-13 22:03:00,
2013-04-13 17:08:00,62.4,44.0,29.71,SE,126,12.7,12.7,51,0.00,CLR,,0.00,WeatherDisplay:10.37,2013-04-13 22:08:00,
2013-04-13 17:13:00,62.1,43.7,29.70,South,180,13.8,13.8,51,0.00,CLR,,0.00,WeatherDisplay:10.37,2013-04-13 22:13:00,
2013-04-13 17:18:00,62.0,44.2,29.70,SE,132,11.5,11.5,52,0.00,CLR,,0.00,WeatherDisplay:10.37,2013-04-13 22:18:00,
2013-04-13 17:23:00,62.5,44.6,29.70,SE,136,5.8,5.8,52,0.00,CLR,,0.00,WeatherDisplay:10.37,2013-04-13 22:23:00,
2013-04-13 17:28:00,62.5,44.1,29.70,SE,140,13.8,13.8,51,0.00,CLR,,0.00,WeatherDisplay:10.37,2013-04-13 22:28:00,
2013-04-13 17:33:00,62.6,44.7,29.69,ESE,117,16.1,16.1,52,0.00,CLR,,0.00,WeatherDisplay:10.37,2013-04-13 22:33:00,
2013-04-13 17:38:00,63.0,45.1,29.69,South,179,11.5,11.5,52,0.00,CLR,,0.00,WeatherDisplay:10.37,2013-04-13 22:38:00,
2013-04-13 17:43:00,63.2,45.3,29.69,SE,140,10.4,10.4,52,0.00,CLR,,0.00,WeatherDisplay:10.37,2013-04-13 22:43:00,
2013-04-13 17:48:00,63.5,45.6,29.68,SE,140,11.5,11.5,52,0.00,CLR,,0.00,WeatherDisplay:10.37,2013-04-13 22:48:00,
2013-04-13 17:53:00,63.4,45.5,29.68,SE,133,12.7,12.7,52,0.00,CLR,,0.00,WeatherDisplay:10.37,2013-04-13 22:53:00,
2013-04-13 17:58:00,63.5,45.6,29.67,SE,134,11.5,11.5,52,0.00,CLR,,0.00,WeatherDisplay:10.37,2013-04-13 22:58:00,
2013-04-13 18:03:00,63.6,45.6,29.67,SE,135,4.6,4.6,52,0.00,CLR,,0.00,WeatherDisplay:10.37,2013-04-13 23:03:00,
2013-04-13 18:08:00,63.7,45.7,29.67,SSE,157,11.5,11.5,52,0.00,CLR,,0.00,WeatherDisplay:10.37,2013-04-13 23:08:00,
2013-04-13 18:13:00,63.8,45.8,29.67,SE,136,9.2,9.2,52,0.00,CLR,,0.00,WeatherDisplay:10.37,2013-04-13 23:13:00,
2013-04-13 18:18:00,63.8,45.8,29.67,SSE,163,4.6,4.6,52,0.00,CLR,,0.00,WeatherDisplay:10.37,2013-04-13 23:18:00,
2013-04-13 18:23:00,63.9,45.9,29.67,SE,140,11.5,11.5,52,0.00,CLR,,0.00,WeatherDisplay:10.37,2013-04-13 23:23:00,
2013-04-13 18:28:00,63.8,45.8,29.67,SSE,148,13.8,13.8,52,0.00,CLR,,0.00,WeatherDisplay:10.37,2013-04-13 23:28:00,
2013-04-13 18:33:00,63.6,46.1,29.67,SSE,153,10.4,10.4,53,0.00,CLR,,0.00,WeatherDisplay:10.37,2013-04-13 23:33:00,
2013-04-13 18:38:00,63.6,46.1,29.66,SE,142,11.5,11.5,53,0.00,CLR,,0.00,WeatherDisplay:10.37,2013-04-13 23:38:00,
2013-04-13 18:43:00,63.6,46.1,29.66,ESE,120,7.0,7.0,53,0.00,CLR,,0.00,WeatherDisplay:10.37,2013-04-13 23:43:00,
2013-04-13 18:48:00,63.6,46.1,29.66,South,175,10.4,10.4,53,0.00,CLR,,0.00,WeatherDisplay:10.37,2013-04-13 23:48:00,
2013-04-13 18:53:00,63.6,46.6,29.65,SE,140,6.9,6.9,54,0.00,CLR,,0.00,WeatherDisplay:10.37,2013-04-13 23:53:00,
2013-04-13 18:58:00,63.6,46.6,29.65,SSE,153,9.2,9.2,54,0.00,CLR,,0.00,WeatherDisplay:10.37,2013-04-13 23:58:00,
2013-04-13 19:03:00,63.6,46.6,29.65,SE,129,10.4,10.4,54,0.00,CLR,,0.00,WeatherDisplay:10.37,2013-04-14 00:03:00,
2013-04-13 19:08:00,63.6,46.6,29.65,SE,130,12.7,12.7,54,0.00,CLR,,0.00,WeatherDisplay:10.37,2013-04-14 00:08:00,
2013-04-13 19:13:00,63.6,47.1,29.65,SE,136,10.4,10.4,55,0.00,CLR,,0.00,WeatherDisplay:10.37,2013-04-14 00:13:00,
2013-04-13 19:18:00,63.5,47.0,29.65,SE,138,5.8,5.8,55,0.00,CLR,,0.00,WeatherDisplay:10.37,2013-04-14 00:18:00,
2013-04-13 19:23:00,63.5,47.0,29.65,SE,134,4.0,4.0,55,0.00,CLR,,0.00,WeatherDisplay:10.37,2013-04-14 00:23:00,
2013-04-13 19:28:00,63.4,46.9,29.65,SSE,148,6.9,7.4,55,0.00,CLR,,0.00,WeatherDisplay:10.37,2013-04-14 00:28:00,
2013-04-13 19:33:00,63.5,47.0,29.65,SE,138,11.5,11.5,55,0.00,CLR,,0.00,WeatherDisplay:10.37,2013-04-14 00:33:00,
2013-04-13 19:39:00,63.3,47.3,29.64,ESE,115,5.8,5.8,56,0.00,CLR,,0.00,WeatherDisplay:10.37,2013-04-14 00:39:00,
2013-04-13 19:44:00,63.1,47.1,29.64,ESE,119,4.6,4.6,56,0.00,CLR,,0.00,WeatherDisplay:10.37,2013-04-14 00:44:00,
2013-04-13 19:49:00,62.9,47.0,29.64,SE,128,4.6,4.6,56,0.00,CLR,,0.00,WeatherDisplay:10.37,2013-04-14 00:49:00,
2013-04-13 19:54:00,62.6,47.1,29.64,SE,128,4.6,4.6,57,0.00,CLR,,0.00,WeatherDisplay:10.37,2013-04-14 00:54:00,
2013-04-13 19:59:00,62.3,46.9,29.64,SE,128,2.3,2.3,57,0.00,CLR,,0.00,WeatherDisplay:10.37,2013-04-14 00:59:00,
2013-04-13 20:04:00,62.0,46.6,29.64,SE,128,3.5,3.5,57,0.00,CLR,,0.00,WeatherDisplay:10.37,2013-04-14 01:04:00,
2013-04-13 20:09:00,61.8,46.9,29.63,SE,128,3.5,3.5,58,0.00,CLR,,0.00,WeatherDisplay:10.37,2013-04-14 01:09:00,
2013-04-13 20:14:00,61.6,46.7,29.64,SE,128,4.6,4.6,58,0.00,CLR,,0.00,WeatherDisplay:10.37,2013-04-14 01:14:00,
2013-04-13 20:19:00,61.4,46.5,29.64,SE,128,3.5,3.5,58,0.00,CLR,,0.00,WeatherDisplay:10.37,2013-04-14 01:19:00,
2013-04-13 20:24:00,61.3,46.4,29.64,SE,144,3.5,3.5,58,0.00,CLR,,0.00,WeatherDisplay:10.37,2013-04-14 01:24:00,
2013-04-13 20:29:00,61.1,46.7,29.64,SE,141,6.0,6.0,59,0.00,CLR,,0.00,WeatherDisplay:10.37,2013-04-14 01:29:00,
2013-04-13 20:34:00,60.9,46.5,29.64,SE,140,5.8,5.8,59,0.00,CLR,,0.00,WeatherDisplay:10.37,2013-04-14 01:34:00,
2013-04-13 20:39:00,60.9,46.5,29.64,SE,140,5.8,5.8,59,0.00,CLR,,0.00,WeatherDisplay:10.37,2013-04-14 01:39:00,
2013-04-13 20:44:00,60.8,46.4,29.64,SE,140,3.5,3.5,59,0.00,CLR,,0.00,WeatherDisplay:10.37,2013-04-14 01:44:00,
2013-04-13 20:49:00,60.7,46.3,29.65,SE,139,7.0,7.0,59,0.00,CLR,,0.00,WeatherDisplay:10.37,2013-04-14 01:49:00,
2013-04-13 20:54:00,60.6,46.2,29.65,SE,137,4.6,4.6,59,0.00,CLR,,0.00,WeatherDisplay:10.37,2013-04-14 01:54:00,
2013-04-13 20:59:00,60.4,46.4,29.64,SE,138,3.5,3.5,60,0.00,CLR,,0.00,WeatherDisplay:10.37,2013-04-14 01:59:00,
2013-04-13 21:04:00,60.4,46.4,29.64,SE,137,3.5,3.5,60,0.00,CLR,,0.00,WeatherDisplay:10.37,2013-04-14 02:04:00,
2013-04-13 21:09:00,60.3,46.4,29.65,SE,137,4.6,4.6,60,0.00,CLR,,0.00,WeatherDisplay:10.37,2013-04-14 02:09:00,
2013-04-13 21:14:00,60.1,46.6,29.65,SE,136,4.6,4.6,61,0.00,CLR,,0.00,WeatherDisplay:10.37,2013-04-14 02:14:00,
2013-04-13 21:19:00,60.1,46.6,29.65,SE,133,4.6,4.6,61,0.00,CLR,,0.00,WeatherDisplay:10.37,2013-04-14 02:19:00,
2013-04-13 21:24:00,60.0,46.5,29.65,SE,128,4.0,4.0,61,0.00,CLR,,0.00,WeatherDisplay:10.37,2013-04-14 02:24:00,
2013-04-13 21:29:00,60.0,46.5,29.65,SE,128,4.6,4.6,61,0.00,CLR,,0.00,WeatherDisplay:10.37,2013-04-14 02:29:00,
2013-04-13 21:34:00,59.9,46.4,29.65,SE,128,4.6,4.6,61,0.00,CLR,,0.00,WeatherDisplay:10.37,2013-04-14 02:34:00,
2013-04-13 21:39:00,59.7,46.2,29.65,SE,128,5.8,5.8,61,0.00,CLR,,0.00,WeatherDisplay:10.37,2013-04-14 02:39:00,
2013-04-13 21:44:00,59.6,46.6,29.65,SE,128,3.5,3.5,62,0.00,CLR,,0.00,WeatherDisplay:10.37,2013-04-14 02:44:00,
2013-04-13 21:49:00,59.3,45.8,29.65,SE,128,2.3,2.3,61,0.00,CLR,,0.00,WeatherDisplay:10.37,2013-04-14 02:49:00,
2013-04-13 21:54:00,59.0,45.6,29.65,SE,127,4.6,4.6,61,0.00,CLR,,0.00,WeatherDisplay:10.37,2013-04-14 02:54:00,
2013-04-13 21:59:00,58.6,45.2,29.65,ESE,122,3.5,3.5,61,0.00,CLR,,0.00,WeatherDisplay:10.37,2013-04-14 02:59:00,
2013-04-13 22:04:00,58.2,45.2,29.65,ESE,122,4.6,4.6,62,0.00,CLR,,0.00,WeatherDisplay:10.37,2013-04-14 03:04:00,
2013-04-13 22:09:00,57.9,45.0,29.65,ESE,113,3.5,3.8,62,0.00,CLR,,0.00,WeatherDisplay:10.37,2013-04-14 03:09:00,
2013-04-13 22:14:00,57.7,44.8,29.65,ESE,114,3.5,3.5,62,0.00,CLR,,0.00,WeatherDisplay:10.37,2013-04-14 03:14:00,
2013-04-13 22:19:00,57.5,45.0,29.65,ESE,114,4.6,0.0,63,0.00,CLR,,0.00,WeatherDisplay:10.37,2013-04-14 03:19:00,
2013-04-13 22:24:00,57.3,44.8,29.65,ESE,117,4.6,4.6,63,0.00,CLR,,0.00,WeatherDisplay:10.37,2013-04-14 03:24:00,
2013-04-13 22:29:00,57.2,44.7,29.65,ESE,117,3.5,3.5,63,0.00,CLR,,0.00,WeatherDisplay:10.37,2013-04-14 03:29:00,
2013-04-13 22:34:00,57.1,45.0,29.64,ESE,119,5.8,5.8,64,0.00,CLR,,0.00,WeatherDisplay:10.37,2013-04-14 03:34:00,
2013-04-13 22:39:00,57.0,44.9,29.64,SE,141,6.0,6.0,64,0.00,CLR,,0.00,WeatherDisplay:10.37,2013-04-14 03:39:00,
2013-04-13 22:44:00,57.0,44.9,29.64,SE,142,4.6,4.6,64,0.00,CLR,,0.00,WeatherDisplay:10.37,2013-04-14 03:44:00,
2013-04-13 22:49:00,56.9,44.8,29.64,SE,141,3.5,3.5,64,0.00,CLR,,0.00,WeatherDisplay:10.37,2013-04-14 03:49:00,
2013-04-13 22:54:00,56.9,45.3,29.64,SE,134,8.1,8.1,65,0.00,CLR,,0.00,WeatherDisplay:10.37,2013-04-14 03:54:00,
2013-04-13 22:59:00,56.8,45.2,29.64,SE,134,1.2,0.0,65,0.00,CLR,,0.00,WeatherDisplay:10.37,2013-04-14 03:59:00,
2013-04-13 23:00:00,56.8,45.2,29.64,SE,134,1.2,1.2,65,0.00,CLR,,0.00,WeatherDisplay:10.37,2013-04-14 04:00:00,
2013-04-13 23:05:00,56.6,45.4,29.64,SE,134,4.6,4.6,66,0.00,CLR,,0.00,WeatherDisplay:10.37,2013-04-14 04:05:00,
2013-04-13 23:10:00,56.5,45.3,29.64,SE,134,4.6,4.6,66,0.00,CLR,,0.00,WeatherDisplay:10.37,2013-04-14 04:10:00,
2013-04-13 23:15:00,56.4,45.2,29.63,SE,134,3.5,3.5,66,0.00,CLR,,0.00,WeatherDisplay:10.37,2013-04-14 04:15:00,
2013-04-13 23:20:00,56.3,45.5,29.63,SE,134,1.2,0.0,67,0.00,CLR,,0.00,WeatherDisplay:10.37,2013-04-14 04:20:00,
2013-04-13 23:25:00,56.2,45.4,29.63,SE,133,4.6,4.6,67,0.00,CLR,,0.00,WeatherDisplay:10.37,2013-04-14 04:25:00,
2013-04-13 23:30:00,56.2,45.4,29.63,SE,134,1.2,1.2,67,0.00,CLR,,0.00,WeatherDisplay:10.37,2013-04-14 04:30:00,
2013-04-13 23:35:00,56.2,45.8,29.62,SE,134,3.5,3.5,68,0.00,CLR,,0.00,WeatherDisplay:10.37,2013-04-14 04:35:00,
2013-04-13 23:40:00,56.2,45.8,29.62,SE,134,5.8,5.8,68,0.00,CLR,,0.00,WeatherDisplay:10.37,2013-04-14 04:40:00,
2013-04-13 23:45:00,56.3,45.9,29.62,SE,133,2.3,2.3,68,0.00,CLR,,0.00,WeatherDisplay:10.37,2013-04-14 04:45:00,
2013-04-13 23:50:00,56.4,46.0,29.62,SE,131,4.6,4.6,68,0.00,CLR,,0.00,WeatherDisplay:10.37,2013-04-14 04:50:00,
2013-04-13 23:55:00,56.9,46.4,29.61,SE,132,5.8,5.8,68,0.00,CLR,,0.00,WeatherDisplay:10.37,2013-04-14 04:55:00,